Time;durP1;ratioP1;P1;durP2;ratioP2;P2;SDS_P1;SDS_P2;PMS_P1;PMS_P2;Temp;Humidity;BMP_temperature;BMP_pressure;BME280_temperature;BME280_humidity;BME280_pressure;Samples;Min_cycle;Max_cycle;Signal;HPM_P1;HPM_P2
2023/06/15 00:01:29;;;;;;;7.22;4.25;;;20.40;79.80;;;;;;5035649;28;20032;-83
2023/06/15 00:03:55;;;;;;;7.68;5.00;;;20.40;79.80;;;;;;5036183;28;20025;-82
2023/06/15 00:06:21;;;;;;;8.18;4.90;;;20.40;79.80;;;;;;5035281;28;20030;-83
2023/06/15 00:08:46;;;;;;;7.13;4.68;;;20.40;79.70;;;;;;5036235;28;20025;-82
2023/06/15 00:11:12;;;;;;;6.47;4.30;;;20.40;79.60;;;;;;5034848;28;20025;-83
2023/06/15 00:13:37;;;;;;;6.22;4.20;;;20.40;79.60;;;;;;5035045;28;20537;-82
2023/06/15 00:16:03;;;;;;;6.93;4.00;;;20.40;79.60;;;;;;5040503;28;20018;-86
2023/06/15 00:18:29;;;;;;;6.82;4.25;;;20.40;79.60;;;;;;5054689;28;20017;-85
2023/06/15 00:20:55;;;;;;;6.45;4.63;;;20.40;79.70;;;;;;5053043;28;20032;-86
2023/06/15 00:23:26;;;;;;;6.63;4.47;;;20.40;79.80;;;;;;5053849;28;20024;-84
2023/06/15 00:25:55;;;;;;;5.85;4.40;;;20.40;79.80;;;;;;5053433;28;20013;-86
2023/06/15 00:28:21;;;;;;;5.95;4.00;;;20.40;79.70;;;;;;5052537;28;20034;-84
2023/06/15 00:30:46;;;;;;;6.28;4.47;;;20.40;79.90;;;;;;5051791;28;20094;-83
2023/06/15 00:33:12;;;;;;;6.10;4.22;;;20.40;79.90;;;;;;5049387;28;20080;-83
2023/06/15 00:35:37;;;;;;;6.95;4.80;;;20.40;79.90;;;;;;5049668;28;20505;-84
2023/06/15 00:38:03;;;;;;;6.57;4.40;;;20.40;79.90;;;;;;5048428;28;20043;-82
2023/06/15 00:40:28;;;;;;;5.78;4.10;;;20.40;79.80;;;;;;5047815;28;20033;-84
2023/06/15 00:42:54;;;;;;;6.68;4.75;;;20.50;79.80;;;;;;5048376;28;20033;-82
2023/06/15 00:45:19;;;;;;;6.53;4.57;;;20.50;79.70;;;;;;5047125;28;20136;-82
2023/06/15 00:47:46;;;;;;;6.13;4.10;;;20.50;79.60;;;;;;5045912;28;20029;-84
2023/06/15 00:50:18;;;;;;;6.10;4.18;;;20.50;79.50;;;;;;5047904;28;20026;-83
2023/06/15 00:52:45;;;;;;;6.57;4.50;;;20.50;79.50;;;;;;5047752;28;20389;-83
2023/06/15 00:55:13;;;;;;;6.03;4.10;;;20.50;79.90;;;;;;5047645;28;20028;-83
2023/06/15 00:57:44;;;;;;;6.65;4.40;;;20.50;79.40;;;;;;5045110;28;20112;-83
2023/06/15 01:00:14;;;;;;;6.72;4.60;;;20.50;79.30;;;;;;5044426;28;20029;-82
2023/06/15 01:02:40;;;;;;;5.83;4.20;;;20.50;79.30;;;;;;5044303;28;20052;-85
2023/06/15 01:05:06;;;;;;;7.10;4.30;;;20.50;79.60;;;;;;5049320;28;20275;-85
2023/06/15 01:07:35;;;;;;;8.00;4.82;;;20.50;79.50;;;;;;5052987;28;20077;-86
2023/06/15 01:10:02;;;;;;;7.22;4.90;;;20.50;79.40;;;;;;5052280;28;20398;-85
2023/06/15 01:12:28;;;;;;;7.57;4.47;;;20.40;79.40;;;;;;5051899;28;20581;-86
2023/06/15 01:14:54;;;;;;;7.80;4.45;;;20.40;79.60;;;;;;5051442;28;20040;-86
2023/06/15 01:17:23;;;;;;;7.32;4.18;;;20.40;79.60;;;;;;5050088;28;20045;-85
2023/06/15 01:20:07;;;;;;;6.13;4.20;;;20.40;79.50;;;;;;5050019;28;20029;-83
2023/06/15 01:23:10;;;;;;;7.35;4.40;;;20.40;79.60;;;;;;5050830;28;20047;-82
2023/06/15 01:25:53;;;;;;;6.45;4.45;;;20.40;79.50;;;;;;5047823;28;20093;-82
2023/06/15 01:28:20;;;;;;;6.70;4.50;;;20.30;79.40;;;;;;5050657;28;20026;-84
2023/06/15 01:30:48;;;;;;;7.85;5.00;;;20.40;79.50;;;;;;5050634;28;20486;-84
2023/06/15 01:33:15;;;;;;;6.75;4.60;;;20.30;79.40;;;;;;5050366;28;20203;-84
2023/06/15 01:35:41;;;;;;;6.57;4.50;;;20.30;79.20;;;;;;5049683;28;20425;-82
2023/06/15 01:38:07;;;;;;;6.70;4.35;;;20.30;79.10;;;;;;5050740;28;20123;-83
2023/06/15 01:40:37;;;;;;;6.40;4.07;;;20.30;79.00;;;;;;5048827;28;20040;-82
2023/06/15 01:43:05;;;;;;;6.88;4.57;;;20.30;79.20;;;;;;5047450;28;20456;-84
2023/06/15 01:45:32;;;;;;;6.43;4.32;;;20.30;79.10;;;;;;5047703;28;20029;-83
2023/06/15 01:47:58;;;;;;;6.28;4.28;;;20.30;79.10;;;;;;5049379;28;20406;-83
2023/06/15 01:50:24;;;;;;;6.00;4.10;;;20.30;79.10;;;;;;5046880;28;20026;-83
2023/06/15 01:52:50;;;;;;;7.60;4.43;;;20.30;79.40;;;;;;5048786;28;20458;-83
2023/06/15 01:55:15;;;;;;;6.28;4.45;;;20.30;79.40;;;;;;5044821;28;20037;-83
2023/06/15 01:57:41;;;;;;;6.15;4.53;;;20.30;79.40;;;;;;5045034;28;20121;-83
2023/06/15 02:00:10;;;;;;;6.30;4.47;;;20.30;79.50;;;;;;5044961;28;20032;-85
2023/06/15 02:02:36;;;;;;;6.05;4.18;;;20.30;79.60;;;;;;5047723;28;20029;-82
2023/06/15 02:05:03;;;;;;;7.07;4.47;;;20.40;79.70;;;;;;5047124;28;20029;-84
2023/06/15 02:07:28;;;;;;;7.03;4.50;;;20.40;79.60;;;;;;5044233;28;20025;-82
2023/06/15 02:09:54;;;;;;;6.72;4.63;;;20.40;79.50;;;;;;5043187;28;20030;-82
2023/06/15 02:12:20;;;;;;;6.72;4.63;;;20.30;79.30;;;;;;5042169;28;20111;-84
2023/06/15 02:14:49;;;;;;;6.20;4.50;;;20.40;79.30;;;;;;5042369;28;20089;-82
2023/06/15 02:17:16;;;;;;;7.07;4.47;;;20.40;79.20;;;;;;5041920;28;20021;-82
2023/06/15 02:19:45;;;;;;;7.10;4.47;;;20.50;79.10;;;;;;5044459;28;20089;-82
2023/06/15 02:22:11;;;;;;;6.22;4.28;;;20.40;79.10;;;;;;5044759;28;20043;-82
2023/06/15 02:24:36;;;;;;;6.45;4.40;;;20.50;79.10;;;;;;5041508;28;20467;-82
2023/06/15 02:27:02;;;;;;;5.90;4.28;;;20.50;79.10;;;;;;5039492;28;20484;-82
2023/06/15 02:29:27;;;;;;;5.95;4.22;;;20.50;79.00;;;;;;5039974;28;20029;-83
2023/06/15 02:31:53;;;;;;;7.13;4.93;;;20.50;79.10;;;;;;5040004;28;20061;-84
2023/06/15 02:34:18;;;;;;;6.97;4.78;;;20.40;79.10;;;;;;5041424;28;20442;-82
2023/06/15 02:36:46;;;;;;;7.03;5.03;;;20.40;79.10;;;;;;5037025;28;20029;-83
2023/06/15 02:39:12;;;;;;;7.10;5.43;;;20.40;79.20;;;;;;5037788;28;20028;-83
2023/06/15 02:41:38;;;;;;;6.47;4.32;;;20.40;79.20;;;;;;5040188;28;20042;-83
2023/06/15 02:44:04;;;;;;;7.60;4.70;;;20.30;79.30;;;;;;5039319;28;20032;-83
2023/06/15 02:46:30;;;;;;;6.70;4.55;;;20.30;79.30;;;;;;5038210;28;20021;-83
2023/06/15 02:48:56;;;;;;;7.53;5.00;;;20.30;79.30;;;;;;5040056;28;20022;-82
2023/06/15 02:51:22;;;;;;;6.63;4.40;;;20.30;79.30;;;;;;5039587;28;20014;-83
2023/06/15 02:53:48;;;;;;;7.20;4.68;;;20.30;79.20;;;;;;5038919;28;20032;-83
2023/06/15 02:56:18;;;;;;;7.40;4.70;;;20.30;79.20;;;;;;5037714;28;20030;-80
2023/06/15 02:58:57;;;;;;;6.72;4.50;;;20.30;79.10;;;;;;5036783;28;20021;-83
2023/06/15 03:01:23;;;;;;;6.72;4.50;;;20.30;78.90;;;;;;5037623;28;20096;-83
2023/06/15 03:03:52;;;;;;;6.80;4.45;;;20.30;78.90;;;;;;5036830;28;20026;-82
2023/06/15 03:06:18;;;;;;;6.18;4.15;;;20.30;78.80;;;;;;5036728;28;20088;-82
2023/06/15 03:08:44;;;;;;;6.63;4.13;;;20.30;78.80;;;;;;5036365;28;20071;-82
2023/06/15 03:11:10;;;;;;;6.10;4.07;;;20.30;78.70;;;;;;5038121;28;20397;-82
2023/06/15 03:13:36;;;;;;;6.47;4.03;;;20.30;79.00;;;;;;5036074;28;20017;-82
2023/06/15 03:16:01;;;;;;;7.18;4.65;;;20.20;78.90;;;;;;5036154;28;20024;-84
2023/06/15 03:18:28;;;;;;;7.78;4.50;;;20.20;79.30;;;;;;5035575;28;20057;-82
2023/06/15 03:20:55;;;;;;;6.32;4.43;;;20.20;78.80;;;;;;5038084;28;20021;-82
2023/06/15 03:23:21;;;;;;;6.63;4.10;;;20.20;79.00;;;;;;5035340;28;20018;-82
2023/06/15 03:25:46;;;;;;;6.90;4.50;;;20.20;79.00;;;;;;5035237;28;20435;-81
2023/06/15 03:28:14;;;;;;;6.32;4.43;;;20.30;79.20;;;;;;5038715;28;20033;-83
2023/06/15 03:30:46;;;;;;;7.28;4.68;;;20.30;79.20;;;;;;5032805;28;20033;-82
2023/06/15 03:33:13;;;;;;;7.10;4.85;;;20.30;79.30;;;;;;5031036;28;20037;-81
2023/06/15 03:35:39;;;;;;;6.30;4.40;;;20.30;79.20;;;;;;5031150;28;20036;-86
2023/06/15 03:38:05;;;;;;;6.68;4.60;;;20.30;79.20;;;;;;5042370;28;20057;-84
2023/06/15 03:40:36;;;;;;;7.05;4.68;;;20.30;79.00;;;;;;5033984;28;20080;-86
2023/06/15 03:43:02;;;;;;;7.43;4.47;;;20.40;79.00;;;;;;5045917;28;20150;-82
2023/06/15 03:45:27;;;;;;;6.63;4.25;;;20.40;78.90;;;;;;5045288;28;20053;-83
2023/06/15 03:47:53;;;;;;;6.68;4.55;;;20.40;78.70;;;;;;5044113;28;20045;-85
2023/06/15 03:50:18;;;;;;;6.80;4.60;;;20.40;78.70;;;;;;5042478;28;20021;-84
2023/06/15 03:52:47;;;;;;;7.18;4.50;;;20.40;78.60;;;;;;5040427;28;20032;-83
2023/06/15 03:55:13;;;;;;;7.22;4.55;;;20.40;78.60;;;;;;5042100;28;20052;-84
2023/06/15 03:57:38;;;;;;;6.47;4.50;;;20.40;78.60;;;;;;5042251;28;20025;-82
2023/06/15 04:15:15;;;;;;;6.85;4.88;;;20.40;78.90;;;;;;4938396;29;20105;-84
2023/06/15 04:17:41;;;;;;;7.00;4.88;;;20.20;78.80;;;;;;4921163;29;20042;-83
2023/06/15 04:20:08;;;;;;;7.45;4.80;;;21.90;79.60;;;;;;5000358;28;20057;-84
2023/06/15 04:22:34;;;;;;;8.07;4.93;;;20.30;78.70;;;;;;5007210;28;20442;-86
2023/06/15 04:25:00;;;;;;;7.05;4.88;;;20.20;78.50;;;;;;5015882;28;20045;-87
2023/06/15 04:27:27;;;;;;;6.90;4.35;;;20.30;78.40;;;;;;5015135;28;20030;-87
2023/06/15 04:29:53;;;;;;;8.05;4.88;;;20.20;78.40;;;;;;5014402;28;20022;-86
2023/06/15 04:32:19;;;;;;;7.30;5.10;;;20.20;78.30;;;;;;5014746;28;20026;-85
2023/06/15 04:34:45;;;;;;;7.75;4.75;;;20.30;78.40;;;;;;5032194;28;20061;-84
2023/06/15 04:37:13;;;;;;;7.05;4.75;;;20.20;78.20;;;;;;5009969;28;20033;-86
2023/06/15 04:39:39;;;;;;;8.45;5.10;;;20.30;78.40;;;;;;5007113;28;20087;-86
2023/06/15 04:42:05;;;;;;;6.78;4.40;;;20.20;78.40;;;;;;5011433;28;20121;-84
2023/06/15 04:44:30;;;;;;;6.88;4.65;;;20.30;78.40;;;;;;5011244;28;20055;-83
2023/06/15 04:46:56;;;;;;;7.22;4.60;;;20.30;78.30;;;;;;5009279;28;20041;-84
2023/06/15 04:49:21;;;;;;;6.65;4.20;;;20.30;78.50;;;;;;5010112;28;20102;-85
2023/06/15 04:51:49;;;;;;;6.20;4.30;;;20.20;78.40;;;;;;5008362;28;20065;-83
2023/06/15 04:54:15;;;;;;;6.38;4.47;;;20.30;78.50;;;;;;5026382;28;20014;-84
2023/06/15 04:56:40;;;;;;;6.78;4.75;;;20.20;78.40;;;;;;5008029;28;20176;-82
2023/06/15 04:59:06;;;;;;;6.97;4.85;;;20.30;78.60;;;;;;5007497;28;20037;-84
2023/06/15 05:01:31;;;;;;;7.78;5.28;;;20.30;78.70;;;;;;5008056;28;20068;-84
2023/06/15 05:03:58;;;;;;;7.32;5.07;;;20.30;79.10;;;;;;5009307;28;20048;-82
2023/06/15 05:06:24;;;;;;;7.32;4.88;;;20.30;78.50;;;;;;5023234;28;20033;-86
2023/06/15 05:08:50;;;;;;;7.18;4.90;;;20.30;78.40;;;;;;5000392;28;20022;-85
2023/06/15 05:11:15;;;;;;;8.30;4.93;;;20.30;78.30;;;;;;5016251;28;20033;-82
2023/06/15 05:13:41;;;;;;;7.07;5.03;;;20.40;78.20;;;;;;5016376;28;20034;-83
2023/06/15 05:16:09;;;;;;;7.20;4.95;;;20.40;78.10;;;;;;5002450;28;20109;-87
2023/06/15 05:45:25;;;;;;;9.65;5.30;;;20.20;77.80;;;;;;5034756;28;20045;-83
2023/06/15 05:47:50;;;;;;;6.95;4.90;;;20.30;77.80;;;;;;5017819;28;20100;-83
2023/06/15 05:50:16;;;;;;;6.68;4.65;;;20.30;77.70;;;;;;5018221;28;20032;-84
2023/06/15 05:52:42;;;;;;;6.97;4.95;;;20.40;77.70;;;;;;5035775;28;20515;-84
2023/06/15 05:55:07;;;;;;;7.93;5.28;;;20.40;77.70;;;;;;5017820;28;20161;-84
2023/06/15 05:57:34;;;;;;;7.88;4.90;;;20.40;77.90;;;;;;5017678;28;20025;-84
2023/06/15 05:59:59;;;;;;;7.43;4.90;;;20.40;77.80;;;;;;5017885;28;20026;-84
2023/06/15 06:02:25;;;;;;;6.40;4.45;;;20.40;77.80;;;;;;5035063;28;20044;-84
2023/06/15 06:04:50;;;;;;;7.03;4.90;;;20.40;77.90;;;;;;5017595;28;20095;-85
2023/06/15 06:07:16;;;;;;;7.95;4.70;;;20.40;77.90;;;;;;5035252;28;20121;-82
2023/06/15 06:09:41;;;;;;;7.75;4.78;;;20.40;78.00;;;;;;5017903;28;20025;-83
2023/06/15 06:12:07;;;;;;;7.38;5.18;;;20.40;78.00;;;;;;5035699;28;20029;-83
2023/06/15 06:14:32;;;;;;;7.95;5.10;;;20.40;78.00;;;;;;5035160;28;20029;-82
2023/06/15 06:16:58;;;;;;;7.93;4.80;;;20.40;78.10;;;;;;5035247;28;20401;-83
2023/06/15 06:19:24;;;;;;;8.02;5.40;;;20.40;78.10;;;;;;5035445;28;20038;-82
2023/06/15 06:21:49;;;;;;;6.65;4.70;;;20.40;78.10;;;;;;5017485;28;20036;-82
2023/06/15 06:24:15;;;;;;;7.47;4.97;;;20.40;78.20;;;;;;5035766;28;20175;-82
2023/06/15 06:26:41;;;;;;;7.15;4.80;;;20.50;78.20;;;;;;5034868;28;20079;-82
2023/06/15 06:29:06;;;;;;;6.60;4.78;;;20.50;78.20;;;;;;5017556;28;20027;-82
2023/06/15 06:31:32;;;;;;;7.75;4.90;;;20.40;78.20;;;;;;5017201;28;20022;-82
2023/06/15 06:33:58;;;;;;;7.10;5.20;;;20.50;78.30;;;;;;5034912;28;20490;-83
2023/06/15 06:36:25;;;;;;;7.82;5.30;;;20.50;78.10;;;;;;5017083;28;20049;-83
2023/06/15 06:38:50;;;;;;;7.10;4.80;;;20.50;77.90;;;;;;5017490;28;20026;-82
2023/06/15 06:41:15;;;;;;;7.90;5.32;;;20.60;77.80;;;;;;5035130;28;20335;-82
2023/06/15 06:43:41;;;;;;;7.35;4.78;;;20.60;77.70;;;;;;5016798;28;20080;-83
2023/06/15 06:46:06;;;;;;;7.25;5.00;;;20.60;77.60;;;;;;5016981;28;20504;-82
2023/06/15 06:48:32;;;;;;;7.20;4.97;;;20.60;77.50;;;;;;5016977;28;20029;-83
2023/06/15 06:50:57;;;;;;;7.40;5.20;;;20.70;77.60;;;;;;5016872;28;20032;-82
2023/06/15 06:53:23;;;;;;;7.15;4.65;;;20.70;77.50;;;;;;5016897;28;20474;-84
2023/06/15 06:55:49;;;;;;;7.50;5.40;;;20.70;77.60;;;;;;5034830;28;20091;-84
2023/06/15 06:58:14;;;;;;;7.00;5.10;;;20.70;77.60;;;;;;5016601;28;20029;-84
2023/06/15 07:00:41;;;;;;;7.13;4.70;;;20.70;77.60;;;;;;5016538;28;20030;-84
2023/06/15 07:03:07;;;;;;;7.22;4.97;;;20.70;77.60;;;;;;5034627;28;20025;-84
2023/06/15 07:05:32;;;;;;;6.75;4.90;;;20.70;77.80;;;;;;5016651;28;20489;-84
2023/06/15 07:07:58;;;;;;;6.93;4.72;;;20.70;77.80;;;;;;5034207;28;20041;-84
2023/06/15 07:10:24;;;;;;;8.05;5.60;;;20.70;77.90;;;;;;5016529;28;20496;-84
2023/06/15 07:12:53;;;;;;;8.15;5.57;;;20.60;78.00;;;;;;5016584;28;20033;-84
2023/06/15 07:15:18;;;;;;;7.75;5.30;;;20.60;78.00;;;;;;5016508;28;20025;-84
2023/06/15 07:17:44;;;;;;;7.13;4.88;;;20.60;78.10;;;;;;5016424;28;20032;-84
2023/06/15 07:20:09;;;;;;;6.65;5.00;;;20.60;78.10;;;;;;5016533;28;20031;-84
2023/06/15 07:22:35;;;;;;;7.07;4.93;;;20.60;78.20;;;;;;5016289;28;20121;-84
2023/06/15 07:25:00;;;;;;;7.03;4.82;;;20.60;78.30;;;;;;5033588;28;20064;-84
2023/06/15 07:27:26;;;;;;;6.75;4.95;;;20.60;78.20;;;;;;5015900;28;20018;-84
2023/06/15 07:29:51;;;;;;;8.02;5.10;;;20.60;78.20;;;;;;5034073;28;20390;-84
2023/06/15 07:32:17;;;;;;;7.80;5.30;;;20.60;78.20;;;;;;5016134;28;20437;-84
2023/06/15 07:34:42;;;;;;;6.90;5.10;;;20.70;78.20;;;;;;5034074;28;20025;-84
2023/06/15 07:37:08;;;;;;;7.22;5.00;;;20.70;78.10;;;;;;5015943;28;20116;-84
2023/06/15 07:39:34;;;;;;;6.72;4.70;;;20.70;78.10;;;;;;5016161;28;20079;-84
2023/06/15 07:42:00;;;;;;;7.05;4.50;;;20.70;78.00;;;;;;5015901;28;20032;-84
2023/06/15 07:44:26;;;;;;;7.35;4.88;;;20.80;78.00;;;;;;5015776;28;20474;-84
2023/06/15 07:46:51;;;;;;;6.80;4.90;;;20.80;78.00;;;;;;5033602;28;20043;-84
2023/06/15 07:49:17;;;;;;;6.53;4.78;;;20.80;77.90;;;;;;5033517;28;20045;-84
2023/06/15 07:51:44;;;;;;;6.82;4.63;;;20.80;77.90;;;;;;5015699;28;20049;-84
2023/06/15 07:54:09;;;;;;;6.82;5.00;;;20.80;77.90;;;;;;5015871;28;20116;-84
2023/06/15 07:56:35;;;;;;;7.07;4.93;;;20.80;77.80;;;;;;5015667;28;20065;-84
2023/06/15 07:59:00;;;;;;;6.82;4.57;;;20.80;77.80;;;;;;5015915;28;20041;-84
2023/06/15 08:01:25;;;;;;;6.50;4.93;;;20.90;77.90;;;;;;5015180;28;20037;-84
2023/06/15 08:03:51;;;;;;;6.82;5.03;;;20.90;77.80;;;;;;5015406;28;20120;-84
2023/06/15 08:06:16;;;;;;;7.25;5.03;;;20.90;77.60;;;;;;5015440;28;20025;-84
2023/06/15 08:08:43;;;;;;;6.68;4.85;;;20.90;77.50;;;;;;5015584;28;20018;-84
2023/06/15 08:11:09;;;;;;;6.70;4.70;;;21.00;77.50;;;;;;5015488;28;20025;-84
2023/06/15 08:13:34;;;;;;;6.53;4.70;;;21.00;77.40;;;;;;5033087;28;20481;-84
2023/06/15 08:16:00;;;;;;;6.70;4.90;;;21.00;77.30;;;;;;5033078;28;20057;-82
2023/06/15 08:18:26;;;;;;;6.97;4.88;;;21.10;77.20;;;;;;5015129;28;20032;-84
2023/06/15 08:20:51;;;;;;;7.15;4.90;;;21.10;77.20;;;;;;5015384;28;20029;-84
2023/06/15 08:23:17;;;;;;;7.00;4.57;;;21.10;77.10;;;;;;5032948;28;20026;-84
2023/06/15 08:25:43;;;;;;;7.55;5.43;;;21.10;77.00;;;;;;5033252;28;20039;-84
2023/06/15 08:28:09;;;;;;;6.70;4.55;;;21.20;77.10;;;;;;5015083;28;20112;-83
2023/06/15 08:30:35;;;;;;;6.70;4.70;;;21.20;77.00;;;;;;5015244;28;20045;-84
2023/06/15 08:33:00;;;;;;;7.05;5.03;;;21.10;77.00;;;;;;5015049;28;20028;-84
2023/06/15 08:35:26;;;;;;;6.40;4.80;;;21.20;76.90;;;;;;5015238;28;20029;-84
2023/06/15 08:37:51;;;;;;;7.05;4.90;;;21.20;77.00;;;;;;5013897;28;20393;-82
2023/06/15 08:40:19;;;;;;;6.63;4.78;;;21.20;77.10;;;;;;5014984;28;20025;-84
2023/06/15 08:42:45;;;;;;;6.60;4.90;;;21.10;77.00;;;;;;5032673;28;20525;-84
2023/06/15 08:45:11;;;;;;;7.20;4.80;;;21.10;77.20;;;;;;5014914;28;20060;-84
2023/06/15 08:47:37;;;;;;;6.20;4.55;;;21.20;77.30;;;;;;5014955;28;20025;-84
2023/06/15 08:50:04;;;;;;;6.68;4.70;;;21.20;77.30;;;;;;5014922;28;20049;-85
2023/06/15 08:52:32;;;;;;;6.40;4.90;;;21.20;77.30;;;;;;5015079;28;20397;-84
2023/06/15 08:54:59;;;;;;;6.75;4.70;;;21.20;77.40;;;;;;5014873;28;20021;-83
2023/06/15 08:57:25;;;;;;;6.70;4.60;;;21.20;77.30;;;;;;5014883;28;20037;-83
2023/06/15 08:59:51;;;;;;;7.15;4.80;;;21.20;77.20;;;;;;5032705;28;20029;-83
2023/06/15 09:02:21;;;;;;;7.70;4.82;;;21.20;77.20;;;;;;5014656;28;20034;-84
2023/06/15 09:04:50;;;;;;;6.22;4.60;;;21.20;77.30;;;;;;5032564;28;20433;-84
2023/06/15 09:07:17;;;;;;;6.40;4.70;;;21.20;77.30;;;;;;5014415;28;20025;-84
2023/06/15 09:10:17;;;;;;;6.20;4.43;;;21.30;77.30;;;;;;5032760;28;20112;-84
2023/06/15 09:12:47;;;;;;;6.18;4.38;;;21.30;77.20;;;;;;5014677;28;20026;-84
2023/06/15 09:15:21;;;;;;;7.40;5.00;;;21.30;77.20;;;;;;5014796;28;20406;-84
2023/06/15 09:17:54;;;;;;;6.45;4.72;;;21.30;77.20;;;;;;5014533;28;20049;-84
2023/06/15 09:20:22;;;;;;;6.30;4.55;;;21.30;77.20;;;;;;5014845;28;20103;-84
2023/06/15 09:22:48;;;;;;;6.32;4.75;;;21.30;77.10;;;;;;5014710;28;20462;-84
2023/06/15 09:25:19;;;;;;;6.40;4.90;;;21.30;77.10;;;;;;5032580;28;20029;-84
2023/06/15 09:28:10;;;;;;;6.88;5.00;;;21.30;77.10;;;;;;5032031;28;20022;-84
2023/06/15 09:30:40;;;;;;;6.30;4.40;;;21.40;77.20;;;;;;5011720;28;20033;-84
2023/06/15 09:33:13;;;;;;;6.00;4.50;;;21.40;77.20;;;;;;5014861;28;20068;-84
2023/06/15 09:35:58;;;;;;;6.55;4.70;;;21.40;77.10;;;;;;5014588;28;20025;-84
2023/06/15 09:38:45;;;;;;;6.53;4.57;;;21.40;77.00;;;;;;5014332;28;20075;-84
2023/06/15 09:41:10;;;;;;;6.10;4.65;;;21.50;77.00;;;;;;5014683;28;20030;-84
2023/06/15 09:43:39;;;;;;;7.13;4.70;;;21.50;76.80;;;;;;5014462;28;20120;-84
2023/06/15 09:46:10;;;;;;;6.75;5.00;;;21.50;76.80;;;;;;5014632;28;20022;-85
2023/06/15 09:48:37;;;;;;;6.68;4.82;;;21.50;76.70;;;;;;5015307;28;20025;-84
2023/06/15 09:51:03;;;;;;;6.80;4.80;;;21.50;76.70;;;;;;5018220;28;20021;-84
2023/06/15 09:53:30;;;;;;;5.72;4.32;;;21.60;76.70;;;;;;5035768;28;20482;-84
2023/06/15 09:55:57;;;;;;;5.97;4.25;;;21.60;76.70;;;;;;5035847;28;20029;-82
2023/06/15 09:58:23;;;;;;;6.35;4.55;;;21.60;76.70;;;;;;5017556;28;20551;-84
2023/06/15 10:00:49;;;;;;;6.25;4.55;;;21.60;76.60;;;;;;5035281;28;20029;-83
2023/06/15 10:03:19;;;;;;;6.25;4.60;;;21.60;76.50;;;;;;5017962;28;20026;-83
2023/06/15 10:05:46;;;;;;;6.60;4.63;;;21.60;76.70;;;;;;5017766;28;20026;-83
2023/06/15 10:08:16;;;;;;;6.35;4.65;;;21.50;76.80;;;;;;5035198;28;20022;-84
2023/06/15 10:10:43;;;;;;;6.15;4.28;;;21.60;76.80;;;;;;5035651;28;20013;-84
2023/06/15 10:13:15;;;;;;;6.57;4.20;;;21.50;76.90;;;;;;5017563;28;20025;-84
2023/06/15 10:15:46;;;;;;;6.53;4.78;;;21.50;77.10;;;;;;5035400;28;20028;-83
2023/06/15 10:18:13;;;;;;;5.90;4.20;;;21.50;77.10;;;;;;5017659;28;20545;-83
2023/06/15 10:20:39;;;;;;;6.20;4.40;;;21.50;77.10;;;;;;5017507;28;20097;-82
2023/06/15 10:23:08;;;;;;;5.65;4.10;;;21.50;77.10;;;;;;5017506;28;20713;-83
2023/06/15 10:25:35;;;;;;;6.20;4.47;;;21.50;77.20;;;;;;5017602;28;20085;-83
2023/06/15 10:28:03;;;;;;;6.35;4.60;;;21.50;77.20;;;;;;5017271;28;20025;-82
2023/06/15 10:30:43;;;;;;;6.30;4.35;;;21.50;77.20;;;;;;5017362;28;20025;-83
2023/06/15 10:33:19;;;;;;;7.03;4.47;;;21.50;77.20;;;;;;5035098;28;20036;-82
2023/06/15 10:35:55;;;;;;;5.82;4.25;;;21.50;77.20;;;;;;5035094;28;20025;-83
2023/06/15 10:38:40;;;;;;;6.10;4.40;;;21.50;77.20;;;;;;5016989;28;20025;-83
2023/06/15 10:41:06;;;;;;;6.05;4.55;;;21.50;77.20;;;;;;5017251;28;20155;-82
2023/06/15 10:43:32;;;;;;;6.10;4.35;;;21.60;77.20;;;;;;5017027;28;20041;-83
2023/06/15 10:45:57;;;;;;;6.30;4.45;;;21.50;77.20;;;;;;5017162;28;20033;-83
2023/06/15 10:48:27;;;;;;;5.97;4.30;;;21.50;77.20;;;;;;5016782;28;20406;-83
2023/06/15 10:51:04;;;;;;;6.03;4.40;;;21.50;77.30;;;;;;5017034;28;20422;-82
2023/06/15 10:53:45;;;;;;;6.03;4.25;;;21.50;77.30;;;;;;5016993;28;20464;-84
2023/06/15 10:56:15;;;;;;;6.22;4.32;;;21.50;77.30;;;;;;5017032;28;20030;-83
2023/06/15 10:58:58;;;;;;;6.47;4.57;;;21.50;77.30;;;;;;5017021;28;20021;-84
2023/06/15 11:01:26;;;;;;;6.40;4.43;;;21.50;77.30;;;;;;5015288;28;20025;-84
2023/06/15 11:03:56;;;;;;;6.78;4.35;;;21.60;77.40;;;;;;5016688;28;20029;-84
2023/06/15 11:06:30;;;;;;;6.07;4.38;;;21.60;77.30;;;;;;5016626;28;20029;-83
2023/06/15 11:09:11;;;;;;;6.15;4.30;;;21.50;77.20;;;;;;5016986;28;20363;-84
2023/06/15 11:11:38;;;;;;;5.97;4.40;;;21.50;77.20;;;;;;5016591;28;20049;-84
2023/06/15 11:14:06;;;;;;;6.45;4.55;;;21.50;77.30;;;;;;5016759;28;20382;-84
2023/06/15 11:16:38;;;;;;;5.75;4.10;;;21.50;77.20;;;;;;5016307;28;20446;-84
2023/06/15 11:19:10;;;;;;;6.50;4.28;;;21.50;77.20;;;;;;5016376;28;20049;-84
2023/06/15 11:21:40;;;;;;;6.00;4.22;;;21.50;77.60;;;;;;5016303;28;20022;-84
2023/06/15 11:24:07;;;;;;;6.63;4.85;;;21.60;77.10;;;;;;5034089;28;20045;-85
2023/06/15 11:26:34;;;;;;;6.78;4.90;;;21.60;77.00;;;;;;5033805;28;20474;-83
2023/06/15 11:29:03;;;;;;;6.10;4.28;;;21.60;77.00;;;;;;5016213;28;20025;-83
2023/06/15 11:31:31;;;;;;;5.45;3.72;;;21.60;77.00;;;;;;5016113;28;20083;-84
2023/06/15 11:33:56;;;;;;;6.72;4.72;;;21.60;76.90;;;;;;5033849;28;20113;-84
2023/06/15 11:36:22;;;;;;;6.28;4.43;;;21.60;77.00;;;;;;5015925;28;20103;-84
2023/06/15 11:38:47;;;;;;;6.60;4.43;;;21.50;77.10;;;;;;5016213;28;20017;-84
2023/06/15 11:41:13;;;;;;;6.38;4.35;;;21.50;77.20;;;;;;5015952;28;20371;-85
2023/06/15 11:43:51;;;;;;;6.05;4.40;;;21.50;77.40;;;;;;5044472;22;20052;-85
2023/06/15 11:46:22;;;;;;;6.20;3.97;;;21.50;77.40;;;;;;5023246;28;20037;-85
2023/06/15 11:48:53;;;;;;;6.37;4.37;;;21.50;77.50;;;;;;5023828;28;20058;-83
2023/06/15 11:51:19;;;;;;;6.47;4.43;;;21.50;77.60;;;;;;5022689;28;20267;-85
2023/06/15 11:53:46;;;;;;;5.88;4.15;;;21.40;77.50;;;;;;5022423;28;20026;-85
2023/06/15 11:56:13;;;;;;;5.97;4.00;;;21.40;77.60;;;;;;5024542;28;20014;-85
2023/06/15 11:58:40;;;;;;;6.78;4.57;;;21.40;77.70;;;;;;5023231;28;20026;-83
2023/06/15 12:01:06;;;;;;;6.47;4.35;;;21.40;77.70;;;;;;5019920;28;20022;-83
2023/06/15 12:03:32;;;;;;;5.97;4.20;;;21.40;77.70;;;;;;5020719;28;20026;-83
2023/06/15 12:05:58;;;;;;;6.15;4.55;;;21.40;77.70;;;;;;5020360;28;20057;-85
2023/06/15 12:08:28;;;;;;;7.00;4.47;;;21.40;77.70;;;;;;5020268;28;20033;-83
2023/06/15 12:10:55;;;;;;;6.30;4.40;;;21.40;77.70;;;;;;5018240;28;20075;-84
2023/06/15 12:13:22;;;;;;;6.10;4.03;;;21.40;77.80;;;;;;5018699;28;20046;-84
2023/06/15 12:15:47;;;;;;;6.10;4.43;;;21.40;77.80;;;;;;5018791;28;20056;-84
2023/06/15 12:18:13;;;;;;;6.07;4.22;;;21.40;77.90;;;;;;5018915;28;20022;-85
2023/06/15 12:20:39;;;;;;;6.70;4.47;;;21.40;77.80;;;;;;5017954;28;20033;-86
2023/06/15 12:23:05;;;;;;;5.82;4.10;;;21.40;77.90;;;;;;5020668;28;20025;-84
2023/06/15 12:25:44;;;;;;;6.93;4.10;;;21.30;78.00;;;;;;5017939;28;20029;-84
2023/06/15 12:28:17;;;;;;;5.97;4.20;;;21.30;78.00;;;;;;5020223;28;20510;-84
2023/06/15 12:30:47;;;;;;;5.10;3.88;;;21.30;78.00;;;;;;5017408;28;20024;-85
2023/06/15 12:33:36;;;;;;;6.43;4.10;;;21.30;78.10;;;;;;5018005;28;20053;-83
2023/06/15 12:36:07;;;;;;;5.78;4.07;;;21.30;78.00;;;;;;5019348;28;20029;-83
2023/06/15 12:38:33;;;;;;;6.60;4.35;;;21.40;78.00;;;;;;5016768;28;20037;-83
2023/06/15 12:40:59;;;;;;;5.70;3.97;;;21.30;77.90;;;;;;5018703;28;20038;-83
2023/06/15 12:43:25;;;;;;;5.55;4.00;;;21.40;77.90;;;;;;5016069;28;20041;-83
2023/06/15 12:45:54;;;;;;;5.65;3.83;;;21.40;77.90;;;;;;5016155;28;20030;-84
2023/06/15 12:48:23;;;;;;;6.05;4.22;;;21.40;77.90;;;;;;5014861;28;20030;-84
2023/06/15 12:50:50;;;;;;;5.85;3.88;;;21.40;77.80;;;;;;5015836;28;20101;-84
2023/06/15 12:53:17;;;;;;;5.75;3.80;;;21.40;77.70;;;;;;5015829;28;20541;-84
2023/06/15 12:55:44;;;;;;;6.25;3.92;;;21.40;77.70;;;;;;5014472;28;20030;-84
2023/06/15 12:58:09;;;;;;;5.68;4.05;;;21.40;77.70;;;;;;5014004;28;20036;-85
2023/06/15 13:00:35;;;;;;;5.95;3.97;;;21.40;77.70;;;;;;5014280;28;20026;-83
2023/06/15 13:03:01;;;;;;;5.45;3.83;;;21.40;77.80;;;;;;5016134;28;20030;-83
2023/06/15 13:05:27;;;;;;;5.60;3.95;;;21.40;77.80;;;;;;5016052;28;20033;-84
2023/06/15 13:07:53;;;;;;;5.90;4.07;;;21.30;77.70;;;;;;5015248;28;20112;-83
2023/06/15 13:10:18;;;;;;;5.85;4.10;;;21.30;77.80;;;;;;5014161;28;20046;-83
2023/06/15 13:12:45;;;;;;;6.40;4.32;;;21.30;78.10;;;;;;5013948;28;20034;-83
2023/06/15 13:15:10;;;;;;;6.55;4.18;;;21.30;78.00;;;;;;5015035;28;20045;-83
2023/06/15 13:17:37;;;;;;;6.20;4.20;;;21.30;78.20;;;;;;5013352;28;20037;-84
2023/06/15 13:20:04;;;;;;;6.82;4.22;;;21.20;78.20;;;;;;5014617;28;20098;-83
2023/06/15 13:22:30;;;;;;;6.40;4.45;;;21.20;78.30;;;;;;5012980;28;20034;-84
2023/06/15 13:24:55;;;;;;;5.80;3.95;;;21.20;78.40;;;;;;5015734;28;20343;-83
2023/06/15 13:27:21;;;;;;;6.13;4.28;;;21.20;78.40;;;;;;5016786;28;20033;-83
2023/06/15 13:29:46;;;;;;;6.30;4.28;;;21.20;78.40;;;;;;5017030;28;20018;-84
2023/06/15 13:32:12;;;;;;;6.07;4.05;;;21.20;78.50;;;;;;5015967;28;20022;-84